To NAV CANADA Home Page Login to a new session Search on AWWS site Disclaimer Vers la page française équivalente Tips FAQ What's new on the site To the Forecasts and Observations / NOTAM section To "File a Flight Plan" website Publications and other links Update of the User's profile FIC Telephone Numbers My Weather Data Folder Route Weather Data Regional Weather Data Local Weather Data To the Forecasts and Observations / NOTAM section
Request Generated 04/24/2019 at 16:10:42 UTC . Weather information available at that time is displayed.

METAR/TAF

EKATI/NT    

METAR CYOA 241500Z 09026G34KT 1SM BLSN BKN055 M15/M17 A2982 RMK SC7=
METAR CYOA 241400Z 09032KT 3/4SM BLSN SCT020 BKN050 M14/M16 A2980 RMK
SC3SC4=
METAR CYOA 241300Z 08029KT 1SM BLSN FEW005 OVC020 M14/M16 A2978 RMK
ST2SC6=

TAF CYOA 241239Z 2413/2423 08025G35KT 1/2SM SN BLSN OVC004 TEMPO
2413/2420 3SM -SN OVC010
FM242000 07020G30KT 2SM -SN BLSN OVC008 TEMPO 2420/2423 6SM -SN
OVC025
RMK NXT FCST BY 241900Z=
Your time UTC time
Weather data provided by Environment Canada and NAV CANADA